Time;durP1;ratioP1;P1;durP2;ratioP2;P2;SDS_P1;SDS_P2;PMS_P1;PMS_P2;Temp;Humidity;BMP_temperature;BMP_pressure;BME280_temperature;BME280_humidity;BME280_pressure;Samples;Min_cycle;Max_cycle;Signal;HPM_P1;HPM_P2
2022/05/01 00:01:18;;;;;;;12.48;6.68;;;;;;;8.84;70.54;99911.72;5018370;28;20037;-92
2022/05/01 00:03:43;;;;;;;16.02;7.30;;;;;;;8.78;70.74;99905.47;5019087;28;20472;-92
2022/05/01 00:06:10;;;;;;;9.98;7.13;;;;;;;8.79;71.17;99915.16;5002567;28;20221;-92
2022/05/01 00:08:39;;;;;;;10.90;6.65;;;;;;;8.73;71.08;99908.06;5001983;28;20072;-92
2022/05/01 00:11:10;;;;;;;17.10;10.18;;;;;;;8.59;71.30;99891.47;5002301;28;20036;-92
2022/05/01 00:13:35;;;;;;;13.02;8.57;;;;;;;8.46;71.76;99897.94;5002378;28;20049;-92
2022/05/01 00:16:01;;;;;;;13.90;8.15;;;;;;;8.50;71.78;99912.50;5002833;28;20040;-92
2022/05/01 00:18:26;;;;;;;10.10;7.57;;;;;;;8.48;71.81;99916.50;5019191;28;20030;-93
2022/05/01 00:20:52;;;;;;;8.63;7.35;;;;;;;8.56;71.35;99913.41;5001435;28;20029;-93
2022/05/01 00:23:19;;;;;;;11.80;7.93;;;;;;;8.68;71.04;99913.38;5002466;28;20034;-93
2022/05/01 00:25:44;;;;;;;13.98;9.90;;;;;;;8.46;71.99;99902.50;5002290;28;20092;-93
2022/05/01 00:28:10;;;;;;;14.98;9.75;;;;;;;8.47;71.87;99907.63;5018620;28;20552;-93
2022/05/01 00:30:36;;;;;;;14.63;9.77;;;;;;;8.52;72.27;99914.16;5001314;28;20026;-93
2022/05/01 00:38:30;;;;;;;11.90;7.20;;;;;;;8.46;71.55;99916.72;5004969;28;20562;-91
2022/05/01 00:40:56;;;;;;;10.23;7.15;;;;;;;8.57;71.35;99919.59;5002000;28;20026;-91
2022/05/01 00:43:22;;;;;;;10.23;7.78;;;;;;;8.57;71.46;99917.75;5002086;28;20083;-93
2022/05/01 00:45:49;;;;;;;10.50;7.20;;;;;;;8.45;71.99;99914.31;5017471;28;20030;-92
2022/05/01 00:48:14;;;;;;;11.85;7.43;;;;;;;8.54;71.33;99912.84;5017867;28;20022;-92
2022/05/01 00:50:41;;;;;;;12.57;7.40;;;;;;;8.52;71.34;99933.75;5017413;28;20099;-92
2022/05/01 00:53:07;;;;;;;12.15;7.03;;;;;;;8.45;71.75;99928.53;5001756;28;20399;-91
2022/05/01 00:55:32;;;;;;;13.55;7.82;;;;;;;8.27;71.77;99910.72;5016703;28;20109;-92
2022/05/01 00:57:57;;;;;;;9.15;7.20;;;;;;;8.26;71.88;99919.84;5017799;28;20428;-92
2022/05/01 01:00:23;;;;;;;10.40;7.25;;;;;;;8.27;71.58;99910.72;5017892;28;20033;-93
2022/05/01 01:02:49;;;;;;;10.15;6.72;;;;;;;8.23;71.97;99922.19;5002705;28;20018;-93
2022/05/01 01:05:14;;;;;;;8.40;6.60;;;;;;;8.19;71.79;99924.50;5017595;28;20531;-92
2022/05/01 01:07:40;;;;;;;13.07;6.80;;;;;;;8.09;71.43;99911.75;5001656;28;20022;-93
2022/05/01 01:10:06;;;;;;;12.98;7.57;;;;;;;8.08;71.51;99917.34;5001582;28;20112;-92
2022/05/01 01:15:15;;;;;;;9.20;6.60;;;;;;;8.01;71.77;99930.06;5004932;28;20036;-93
2022/05/01 01:17:42;;;;;;;9.45;6.80;;;;;;;8.02;71.92;99931.69;5000437;28;20026;-92
2022/05/01 01:20:09;;;;;;;11.07;7.80;;;;;;;8.00;72.18;99931.13;5016832;28;20077;-92
2022/05/01 01:22:36;;;;;;;10.25;7.45;;;;;;;7.98;72.39;99931.34;5017600;28;20026;-92
2022/05/01 01:25:02;;;;;;;8.40;6.13;;;;;;;7.92;72.14;99931.50;5001612;28;20093;-92
2022/05/01 01:27:27;;;;;;;12.05;6.53;;;;;;;7.94;72.13;99930.19;5017418;28;20057;-92
2022/05/01 01:32:39;;;;;;;29.25;8.88;;;;;;;7.90;72.52;99927.16;5016035;28;20028;-92
2022/05/01 01:35:05;;;;;;;13.25;7.47;;;;;;;7.92;72.15;99918.09;4985594;28;20025;-93
2022/05/01 01:37:32;;;;;;;10.38;7.82;;;;;;;7.93;72.14;99920.53;5016386;28;20405;-92
2022/05/01 01:39:58;;;;;;;14.00;7.80;;;;;;;7.89;72.99;99932.78;5000525;28;20093;-92
2022/05/01 01:42:23;;;;;;;12.48;7.82;;;;;;;7.93;72.71;99925.06;4998876;28;20025;-92
2022/05/01 01:44:49;;;;;;;13.05;7.63;;;;;;;7.83;72.55;99931.03;5017914;28;20141;-92
2022/05/01 01:47:14;;;;;;;12.00;8.10;;;;;;;7.73;73.02;99930.84;5001067;28;20084;-93
2022/05/01 01:49:40;;;;;;;8.70;7.05;;;;;;;7.73;72.41;99934.31;5000827;28;20029;-93
2022/05/01 01:52:06;;;;;;;9.00;6.80;;;;;;;7.58;72.87;99924.09;4999694;28;20022;-92
2022/05/01 01:54:31;;;;;;;14.27;7.93;;;;;;;7.68;72.97;99942.25;5017503;28;20084;-92
2022/05/01 01:56:59;;;;;;;8.77;6.93;;;;;;;7.55;72.82;99926.41;5016403;28;20046;-91
2022/05/01 01:59:24;;;;;;;10.27;6.88;;;;;;;7.59;72.72;99936.44;5017171;28;20029;-92
2022/05/01 02:01:50;;;;;;;11.45;7.10;;;;;;;7.61;73.00;99945.03;5015536;28;20030;-92
2022/05/01 02:04:15;;;;;;;10.93;7.00;;;;;;;7.62;72.56;99937.84;5000336;28;20026;-92
2022/05/01 02:06:43;;;;;;;8.60;6.60;;;;;;;7.59;72.28;99939.09;5000571;28;20018;-92
2022/05/01 02:09:08;;;;;;;9.43;6.10;;;;;;;7.56;72.28;99936.09;5016979;28;20022;-92
2022/05/01 02:11:36;;;;;;;9.80;6.57;;;;;;;7.52;72.37;99943.78;5015437;28;20100;-92
2022/05/01 02:14:01;;;;;;;13.73;6.57;;;;;;;7.43;72.91;99945.19;4999574;28;20393;-93
2022/05/01 02:16:27;;;;;;;10.45;6.60;;;;;;;7.43;72.18;99946.00;5016493;28;20032;-93
2022/05/01 02:18:52;;;;;;;9.48;6.57;;;;;;;7.42;73.09;99939.00;5016517;28;20029;-92
2022/05/01 02:21:36;;;;;;;9.18;7.03;;;;;;;7.27;74.08;99936.78;4999660;28;20597;-91
2022/05/01 02:24:09;;;;;;;11.77;6.68;;;;;;;7.25;73.04;99930.03;4998689;28;20149;-91
2022/05/01 02:26:35;;;;;;;10.18;6.68;;;;;;;7.17;73.75;99941.91;4998403;28;20022;-94
2022/05/01 02:29:02;;;;;;;12.43;7.05;;;;;;;7.23;72.85;99938.31;5000015;28;20026;-93
2022/05/01 02:31:28;;;;;;;11.52;6.78;;;;;;;7.19;73.47;99925.63;5016410;28;20029;-93
2022/05/01 02:33:53;;;;;;;10.65;6.75;;;;;;;7.23;73.59;99932.16;5015894;28;20563;-93
2022/05/01 02:36:19;;;;;;;9.52;6.97;;;;;;;7.19;73.51;99918.41;4998452;28;20542;-93
2022/05/01 02:38:46;;;;;;;10.82;7.63;;;;;;;7.12;73.59;99906.16;4999586;28;20026;-92
2022/05/01 02:41:12;;;;;;;10.00;7.63;;;;;;;7.11;73.61;99918.75;5000362;28;20060;-93
2022/05/01 02:43:38;;;;;;;10.15;7.78;;;;;;;7.19;73.32;99914.91;5016320;28;20124;-93
2022/05/01 02:46:04;;;;;;;10.55;8.75;;;;;;;7.17;74.26;99923.16;4999055;28;20149;-92
2022/05/01 02:48:29;;;;;;;13.65;8.52;;;;;;;7.15;73.99;99917.22;5000159;28;20037;-92
2022/05/01 02:50:54;;;;;;;10.85;8.73;;;;;;;7.21;73.64;99918.16;5000074;28;20015;-93
2022/05/01 02:53:20;;;;;;;10.02;8.48;;;;;;;7.35;73.03;99929.47;4999812;28;20083;-93
2022/05/01 02:55:45;;;;;;;16.23;9.80;;;;;;;7.27;73.22;99917.25;4998789;28;20025;-93
2022/05/01 02:58:11;;;;;;;12.60;9.90;;;;;;;7.29;73.36;99920.50;4999266;28;20034;-94
2022/05/01 03:00:36;;;;;;;14.95;9.85;;;;;;;7.28;73.26;99913.50;5000115;28;20030;-93
2022/05/01 03:03:02;;;;;;;17.08;9.23;;;;;;;7.23;72.67;99913.41;4999921;28;20026;-94
2022/05/01 03:05:28;;;;;;;15.90;9.35;;;;;;;7.27;72.86;99914.56;4999318;28;20026;-93
2022/05/01 03:07:55;;;;;;;13.30;9.60;;;;;;;7.30;72.72;99935.50;4999347;28;20045;-92
2022/05/01 03:10:22;;;;;;;13.35;8.93;;;;;;;7.11;72.61;99929.44;4999287;28;20465;-93
2022/05/01 03:12:47;;;;;;;14.93;9.45;;;;;;;7.09;73.48;99927.00;5015565;28;20029;-93
2022/05/01 03:15:13;;;;;;;11.45;9.15;;;;;;;7.13;72.75;99924.69;4999375;28;20088;-91
2022/05/01 03:23:08;;;;;;;12.20;7.55;;;;;;;7.11;71.69;99920.59;5001567;28;20101;-93
2022/05/01 03:25:33;;;;;;;14.88;8.57;;;;;;;7.00;71.76;99912.34;4999114;28;20033;-93
2022/05/01 03:27:59;;;;;;;12.25;8.98;;;;;;;6.98;71.90;99911.75;5015953;28;20496;-93
2022/05/01 03:30:24;;;;;;;12.15;8.50;;;;;;;7.03;72.57;99929.78;5015720;28;20038;-92
2022/05/01 03:32:50;;;;;;;13.05;8.23;;;;;;;6.98;71.93;99925.13;4998376;28;20029;-92
2022/05/01 03:35:16;;;;;;;12.50;7.50;;;;;;;7.02;72.14;99931.66;5015487;28;20099;-92
2022/05/01 03:37:42;;;;;;;13.25;9.38;;;;;;;6.96;72.55;99926.41;5015535;28;20030;-93
2022/05/01 03:40:10;;;;;;;17.60;9.90;;;;;;;6.92;72.63;99930.59;5015043;28;20068;-93
2022/05/01 03:42:36;;;;;;;20.67;9.88;;;;;;;7.01;72.83;99921.19;4998420;28;20026;-93
2022/05/01 03:45:01;;;;;;;11.40;8.43;;;;;;;7.04;72.10;99934.13;5015930;28;20037;-92
2022/05/01 03:47:27;;;;;;;10.23;7.55;;;;;;;6.92;72.28;99915.34;4998965;28;20025;-93
2022/05/01 03:49:52;;;;;;;10.55;8.13;;;;;;;6.94;71.96;99925.84;4998717;28;20041;-93
2022/05/01 03:52:18;;;;;;;18.92;9.73;;;;;;;6.98;72.11;99930.50;4997784;28;20037;-93
2022/05/01 03:54:44;;;;;;;13.05;9.35;;;;;;;7.08;72.58;99932.59;4998562;28;20038;-92
2022/05/01 03:57:11;;;;;;;13.82;8.55;;;;;;;7.13;71.83;99937.25;4998821;28;20058;-92
2022/05/01 03:59:36;;;;;;;17.15;9.00;;;;;;;7.21;72.42;99944.94;5015312;28;20022;-93
2022/05/01 04:02:02;;;;;;;23.55;10.05;;;;;;;7.23;72.36;99945.53;5014082;28;20041;-93
2022/05/01 04:04:27;;;;;;;14.23;10.60;;;;;;;7.49;72.05;99949.59;5001479;28;20087;-93
2022/05/01 04:06:53;;;;;;;15.20;10.70;;;;;;;7.42;71.89;99933.66;5019004;28;20021;-93
2022/05/01 04:09:21;;;;;;;12.75;8.57;;;;;;;7.54;72.28;99930.16;5018361;28;20033;-93
2022/05/01 04:11:46;;;;;;;20.13;8.85;;;;;;;7.53;72.58;99940.03;5000842;28;20029;-92
2022/05/01 04:14:12;;;;;;;12.90;8.88;;;;;;;7.46;72.95;99947.41;5001776;28;20033;-92
2022/05/01 04:16:37;;;;;;;19.95;8.77;;;;;;;7.46;73.10;99960.78;5017856;28;20081;-92
2022/05/01 04:19:03;;;;;;;12.95;9.38;;;;;;;7.55;72.87;99945.19;5017622;28;20029;-93
2022/05/01 04:21:28;;;;;;;12.02;9.18;;;;;;;7.75;72.10;99942.13;5017820;28;20433;-90
2022/05/01 04:23:54;;;;;;;16.10;8.73;;;;;;;7.81;72.00;99952.72;5002326;28;20034;-92
2022/05/01 04:26:19;;;;;;;13.20;8.13;;;;;;;7.88;71.95;99944.53;5002172;28;20091;-93
2022/05/01 04:31:30;;;;;;;10.30;8.18;;;;;;;7.86;71.66;99944.81;5019139;28;20020;-92
2022/05/01 04:33:56;;;;;;;12.00;7.50;;;;;;;7.98;70.92;99946.63;5018308;28;20030;-93
2022/05/01 04:36:21;;;;;;;9.45;6.95;;;;;;;7.97;70.76;99942.31;5017983;28;20038;-94
2022/05/01 04:38:47;;;;;;;9.75;7.03;;;;;;;7.93;70.69;99933.09;5002565;28;20026;-92
2022/05/01 04:41:16;;;;;;;14.23;7.78;;;;;;;8.03;70.64;99941.34;5002692;28;20033;-93
2022/05/01 04:43:42;;;;;;;10.15;6.97;;;;;;;7.99;70.19;99935.66;5001723;28;20022;-93
2022/05/01 04:46:08;;;;;;;12.25;7.78;;;;;;;8.01;70.62;99946.13;5017876;28;20033;-93
2022/05/01 04:48:33;;;;;;;9.48;7.43;;;;;;;8.14;70.35;99953.94;5001855;28;20025;-93
2022/05/01 04:51:00;;;;;;;13.30;7.45;;;;;;;8.06;70.54;99940.91;5002365;28;20053;-93
2022/05/01 04:53:26;;;;;;;9.95;7.65;;;;;;;8.08;70.30;99946.84;5001304;28;20022;-93
2022/05/01 04:55:54;;;;;;;16.67;7.53;;;;;;;8.20;70.00;99944.13;5001053;28;20041;-92
2022/05/01 04:58:20;;;;;;;11.52;7.53;;;;;;;8.24;70.33;99942.59;5002705;28;20476;-93
2022/05/01 05:00:46;;;;;;;13.90;7.13;;;;;;;8.34;69.94;99955.38;5018496;28;20455;-94
2022/05/01 05:03:12;;;;;;;11.60;6.70;;;;;;;8.39;69.85;99950.94;5017474;28;20026;-93
2022/05/01 05:05:38;;;;;;;14.80;6.93;;;;;;;8.44;69.87;99947.56;5017466;28;20098;-93
2022/05/01 05:10:51;;;;;;;9.13;6.70;;;;;;;8.55;69.36;99956.59;5018296;28;20033;-92
2022/05/01 05:13:22;;;;;;;15.02;7.50;;;;;;;8.66;69.26;99959.22;5017653;28;20380;-93
2022/05/01 05:15:48;;;;;;;9.77;7.45;;;;;;;8.76;69.26;99955.09;5000478;28;20029;-93
2022/05/01 05:18:14;;;;;;;17.70;7.90;;;;;;;8.89;69.13;99950.22;5018092;28;20543;-93
2022/05/01 05:20:39;;;;;;;10.82;7.88;;;;;;;8.97;68.72;99949.03;5000349;28;20041;-93
2022/05/01 05:23:05;;;;;;;8.50;7.00;;;;;;;9.18;68.52;99968.97;5017283;28;20030;-92
2022/05/01 05:25:31;;;;;;;10.77;7.68;;;;;;;9.22;68.61;99963.94;5001672;28;20539;-93
2022/05/01 05:27:56;;;;;;;11.38;8.98;;;;;;;9.40;67.67;99957.47;5018451;28;20034;-94
2022/05/01 05:30:22;;;;;;;11.60;8.68;;;;;;;9.46;67.86;99946.56;5018347;28;20033;-92
2022/05/01 05:32:48;;;;;;;14.60;9.55;;;;;;;9.55;67.81;99946.94;5001862;28;20026;-93
2022/05/01 05:35:13;;;;;;;10.80;9.05;;;;;;;9.75;66.87;99949.09;5001657;28;20033;-93
2022/05/01 05:37:38;;;;;;;21.92;9.32;;;;;;;9.75;66.73;99941.03;5001266;28;20416;-92
2022/05/01 05:40:05;;;;;;;12.30;9.35;;;;;;;9.82;66.65;99957.00;5000192;28;20034;-92
2022/05/01 05:42:30;;;;;;;11.48;8.70;;;;;;;9.91;66.75;99948.22;5017098;28;20038;-92
2022/05/01 05:44:56;;;;;;;12.60;8.68;;;;;;;10.03;66.51;99944.63;5001115;28;20041;-93
2022/05/01 05:47:22;;;;;;;11.88;7.80;;;;;;;10.09;66.30;99941.72;5001118;28;20034;-93
2022/05/01 05:49:48;;;;;;;37.80;8.73;;;;;;;10.29;65.95;99959.16;4999383;28;20033;-94
2022/05/01 05:52:13;;;;;;;14.13;7.85;;;;;;;10.38;65.35;99952.31;5000758;28;20026;-94
2022/05/01 05:54:40;;;;;;;11.82;8.18;;;;;;;10.42;65.34;99942.66;5001152;28;20488;-93
2022/05/01 05:57:05;;;;;;;15.75;8.60;;;;;;;10.56;64.89;99951.13;5001090;28;20041;-94
2022/05/01 05:59:31;;;;;;;18.92;8.05;;;;;;;10.69;64.24;99949.94;4984537;28;20128;-94
2022/05/01 06:01:56;;;;;;;20.15;8.45;;;;;;;10.81;64.25;99953.28;4984597;28;20032;-94
2022/05/01 06:04:22;;;;;;;17.92;10.80;;;;;;;10.98;64.36;99960.41;4985186;28;20526;-94
2022/05/01 06:06:48;;;;;;;10.65;9.35;;;;;;;11.07;63.56;99956.19;4984292;28;20013;-92
2022/05/01 06:09:13;;;;;;;13.65;10.55;;;;;;;11.19;63.10;99951.44;4984676;28;20029;-91
2022/05/01 06:11:39;;;;;;;13.48;10.75;;;;;;;11.28;62.87;99952.56;4984624;28;20033;-92
2022/05/01 06:14:04;;;;;;;20.77;11.02;;;;;;;11.50;62.22;99962.44;4969675;28;20499;-93
2022/05/01 06:16:31;;;;;;;21.88;12.70;;;;;;;11.65;62.23;99950.94;4984271;28;20026;-93
2022/05/01 06:18:58;;;;;;;15.98;11.15;;;;;;;11.80;62.08;99953.69;4985791;28;20029;-91
2022/05/01 06:21:25;;;;;;;17.75;11.55;;;;;;;11.95;61.59;99965.66;4985409;28;20029;-91
2022/05/01 06:23:51;;;;;;;19.90;12.70;;;;;;;11.96;61.57;99951.91;5005662;28;20029;-92
2022/05/01 06:26:17;;;;;;;17.35;12.45;;;;;;;12.24;60.92;99966.91;5000679;28;20021;-93
2022/05/01 06:28:42;;;;;;;15.43;11.82;;;;;;;12.45;60.69;99972.34;4967227;28;20100;-93
2022/05/01 06:31:08;;;;;;;18.63;11.07;;;;;;;12.43;60.24;99958.28;4982345;28;20084;-93
2022/05/01 06:33:34;;;;;;;22.40;10.90;;;;;;;12.59;60.24;99980.75;4967291;28;20029;-93
2022/05/01 06:36:00;;;;;;;10.82;9.70;;;;;;;12.69;60.38;99973.47;5000820;28;20528;-93
2022/05/01 06:38:26;;;;;;;13.77;11.23;;;;;;;12.70;59.89;99979.69;4983540;28;20029;-94
2022/05/01 06:40:51;;;;;;;11.60;10.40;;;;;;;12.92;58.70;99976.75;4966390;28;20022;-94
2022/05/01 06:43:17;;;;;;;14.93;10.43;;;;;;;13.09;58.16;99958.41;4984257;28;20056;-93
2022/05/01 06:45:43;;;;;;;14.40;11.10;;;;;;;13.30;57.77;99964.63;4967583;28;20033;-93
2022/05/01 06:48:11;;;;;;;15.00;11.55;;;;;;;13.42;57.07;99966.22;4967360;28;20441;-94
2022/05/01 06:50:37;;;;;;;12.70;10.73;;;;;;;13.34;57.64;99960.31;4965333;28;20113;-94
2022/05/01 06:53:04;;;;;;;11.82;9.82;;;;;;;13.63;57.14;99959.69;4966871;28;20026;-93
2022/05/01 06:55:29;;;;;;;15.75;10.75;;;;;;;13.75;56.16;99945.88;4966992;28;20415;-93
2022/05/01 06:57:55;;;;;;;13.18;11.07;;;;;;;13.89;55.44;99949.59;4966990;28;20029;-93
2022/05/01 07:00:21;;;;;;;17.15;10.07;;;;;;;13.99;54.88;99948.78;4966090;28;20515;-90
2022/05/01 07:02:54;;;;;;;10.93;7.30;;;;;;;13.99;55.27;99954.19;4983200;28;20026;-92
2022/05/01 07:05:20;;;;;;;13.35;8.10;;;;;;;14.31;54.82;99956.47;4984419;28;20026;-93
2022/05/01 07:07:46;;;;;;;10.27;7.10;;;;;;;14.48;54.29;99956.09;4984041;28;20104;-95
2022/05/01 07:10:12;;;;;;;12.20;6.70;;;;;;;14.54;53.12;99943.34;4983379;28;20403;-94
2022/05/01 07:12:37;;;;;;;6.40;3.63;;;;;;;14.68;51.68;99952.50;4982620;28;20021;-93
2022/05/01 07:15:04;;;;;;;5.53;3.42;;;;;;;14.84;51.31;99953.22;4984228;28;20022;-93
2022/05/01 07:17:29;;;;;;;6.45;3.50;;;;;;;14.91;50.39;99952.88;4983686;28;20026;-92
2022/05/01 07:19:55;;;;;;;6.35;3.50;;;;;;;15.08;50.64;99947.84;4983534;28;20049;-93
2022/05/01 07:22:20;;;;;;;4.78;3.70;;;;;;;15.15;50.06;99948.34;4984413;28;20080;-93
2022/05/01 07:24:46;;;;;;;6.00;3.80;;;;;;;15.07;49.80;99938.09;4983022;28;20054;-93
2022/05/01 07:27:11;;;;;;;15.27;4.00;;;;;;;15.27;49.57;99947.97;4983063;28;20049;-94
2022/05/01 07:29:37;;;;;;;7.85;3.40;;;;;;;15.40;48.73;99948.38;4982691;28;20084;-94
2022/05/01 07:32:03;;;;;;;4.90;2.90;;;;;;;15.44;47.58;99946.72;4982794;28;20025;-94
2022/05/01 07:34:28;;;;;;;6.30;3.55;;;;;;;15.50;45.30;99942.84;4982996;28;20030;-93
2022/05/01 07:36:54;;;;;;;4.82;3.05;;;;;;;15.57;45.22;99951.47;4984593;28;20081;-93
2022/05/01 07:39:20;;;;;;;4.55;3.13;;;;;;;15.81;45.35;99953.41;4986728;28;20022;-94
2022/05/01 07:41:45;;;;;;;3.55;2.72;;;;;;;15.77;44.82;99945.03;4986626;28;20026;-93
2022/05/01 07:44:11;;;;;;;4.03;3.00;;;;;;;16.01;44.49;99957.81;4987034;28;20476;-92
2022/05/01 07:46:38;;;;;;;3.22;2.63;;;;;;;15.88;43.21;99941.13;4986314;28;20026;-92
2022/05/01 07:49:04;;;;;;;5.88;2.30;;;;;;;15.92;42.04;99941.34;4985149;28;20542;-93
2022/05/01 07:51:30;;;;;;;5.45;2.60;;;;;;;15.95;42.18;99954.34;4985702;28;20057;-91
2022/05/01 07:53:58;;;;;;;4.25;2.53;;;;;;;16.08;42.48;99948.22;4985402;28;20060;-92
2022/05/01 07:56:24;;;;;;;5.07;2.60;;;;;;;16.24;40.68;99969.75;4986843;28;21218;-93
2022/05/01 07:58:50;;;;;;;5.05;2.78;;;;;;;16.20;41.13;99955.13;4985398;28;20060;-92
2022/05/01 08:01:15;;;;;;;4.90;2.88;;;;;;;16.02;40.26;99951.25;4985342;28;20058;-93
2022/05/01 08:06:27;;;;;;;4.20;2.60;;;;;;;16.23;40.89;99946.38;5011092;28;20091;-91
2022/05/01 08:08:53;;;;;;;9.48;2.75;;;;;;;16.45;42.00;99954.78;4986239;28;20041;-92
2022/05/01 08:11:18;;;;;;;4.32;2.70;;;;;;;16.42;41.02;99932.84;4985752;28;20022;-93
2022/05/01 08:13:44;;;;;;;4.03;2.28;;;;;;;16.49;39.06;99938.69;4985059;28;20373;-93
2022/05/01 08:16:09;;;;;;;6.85;2.65;;;;;;;16.55;40.06;99935.59;4985576;28;20022;-92
2022/05/01 08:21:21;;;;;;;2.95;2.45;;;;;;;16.84;38.52;99944.75;4990442;28;20464;-92
2022/05/01 08:23:46;;;;;;;5.35;2.30;;;;;;;16.52;38.53;99951.72;4985000;28;20091;-94
2022/05/01 08:26:13;;;;;;;9.55;3.03;;;;;;;16.77;38.74;99953.25;4985037;28;20109;-93
2022/05/01 08:28:40;;;;;;;4.47;2.40;;;;;;;16.97;39.15;99949.41;4984342;28;20530;-93
2022/05/01 08:31:06;;;;;;;6.22;2.78;;;;;;;17.10;39.69;99953.28;4984988;28;20013;-93
2022/05/01 08:33:35;;;;;;;3.58;2.28;;;;;;;17.25;37.73;99946.81;4985112;28;20345;-93
2022/05/01 08:36:02;;;;;;;6.45;2.28;;;;;;;17.32;37.67;99949.94;4985623;28;20022;-94
2022/05/01 08:38:28;;;;;;;3.58;2.33;;;;;;;17.34;38.45;99934.09;5001780;28;20026;-93
2022/05/01 08:40:53;;;;;;;3.65;2.35;;;;;;;17.54;38.22;99941.09;4984125;28;20061;-93
2022/05/01 08:43:20;;;;;;;3.30;2.30;;;;;;;17.42;38.23;99930.69;4985025;28;20021;-93
2022/05/01 08:46:23;;;;;;;6.80;3.10;;;;;;;17.49;37.16;99942.00;4985884;28;20033;-95
2022/05/01 08:49:05;;;;;;;4.18;2.42;;;;;;;17.25;37.57;99927.75;5017355;28;20076;-95
2022/05/01 08:51:35;;;;;;;6.15;2.42;;;;;;;17.32;38.18;99920.78;4986889;28;20061;-94
2022/05/01 08:54:06;;;;;;;7.70;2.42;;;;;;;17.39;36.78;99914.97;4985618;28;20107;-94
2022/05/01 08:56:33;;;;;;;4.65;2.20;;;;;;;17.47;36.84;99932.50;4986005;28;20046;-94
2022/05/01 08:59:20;;;;;;;8.95;3.28;;;;;;;17.53;36.49;99923.94;4984585;28;20030;-93
2022/05/01 09:01:46;;;;;;;4.25;2.53;;;;;;;17.61;36.22;99927.09;4986936;28;20030;-93
2022/05/01 09:04:12;;;;;;;2.55;2.22;;;;;;;17.55;35.38;99915.47;4984779;28;20029;-93
2022/05/01 09:06:41;;;;;;;4.63;2.13;;;;;;;17.53;36.50;99891.25;4984560;28;20109;-95
2022/05/01 09:09:07;;;;;;;4.85;2.05;;;;;;;17.72;36.01;99890.34;4969706;28;20030;-94
2022/05/01 09:14:18;;;;;;;4.75;2.05;;;;;;;17.44;35.72;99914.06;4989458;28;20388;-92
2022/05/01 09:17:06;;;;;;;6.82;2.35;;;;;;;17.49;36.46;99909.34;4985894;28;20025;-92
2022/05/01 09:19:31;;;;;;;3.38;2.30;;;;;;;17.66;36.30;99899.72;5003270;28;20038;-93
2022/05/01 09:21:57;;;;;;;6.43;2.17;;;;;;;17.79;35.86;99909.84;4984766;28;20503;-93
2022/05/01 09:24:27;;;;;;;6.00;2.05;;;;;;;17.68;35.10;99889.34;4985495;28;20014;-93
2022/05/01 09:26:53;;;;;;;3.30;2.30;;;;;;;17.89;34.75;99897.97;4985316;28;20496;-93
2022/05/01 09:29:31;;;;;;;5.07;2.97;;;;;;;18.11;34.90;99894.47;4985414;28;20037;-93
2022/05/01 09:31:57;;;;;;;10.40;2.63;;;;;;;18.16;35.17;99878.84;4987207;28;20022;-93
2022/05/01 09:34:24;;;;;;;5.05;2.45;;;;;;;18.29;34.39;99874.47;4984832;28;20076;-93
2022/05/01 09:36:52;;;;;;;3.80;2.00;;;;;;;18.53;33.90;99881.53;4985740;28;20006;-93
2022/05/01 09:39:28;;;;;;;3.33;2.03;;;;;;;18.63;33.52;99875.03;4984715;28;20030;-92
2022/05/01 09:41:54;;;;;;;3.90;2.25;;;;;;;18.56;33.79;99880.94;4984385;28;20025;-94
2022/05/01 09:44:21;;;;;;;5.72;2.33;;;;;;;18.81;33.25;99865.88;4984875;28;20029;-90
2022/05/01 09:46:47;;;;;;;4.43;1.88;;;;;;;18.93;32.76;99870.78;4984362;28;20116;-93
2022/05/01 09:49:14;;;;;;;4.88;2.75;;;;;;;19.02;32.71;99870.84;4984770;28;20048;-92
2022/05/01 09:51:47;;;;;;;3.47;2.33;;;;;;;19.11;32.57;99864.31;4985745;28;20046;-93
2022/05/01 09:54:21;;;;;;;2.55;1.85;;;;;;;19.14;31.77;99869.13;4968187;28;20488;-92
2022/05/01 09:56:59;;;;;;;3.50;2.42;;;;;;;19.26;32.06;99854.06;4985686;28;20046;-94
2022/05/01 09:59:26;;;;;;;3.33;2.10;;;;;;;19.39;32.50;99853.97;4984905;28;20034;-93
2022/05/01 10:02:03;;;;;;;6.10;2.00;;;;;;;19.38;32.07;99851.56;4984736;28;20022;-93
2022/05/01 10:04:30;;;;;;;4.40;2.20;;;;;;;19.16;33.44;99850.50;5017179;28;20049;-93
2022/05/01 10:06:57;;;;;;;3.08;2.20;;;;;;;18.99;33.42;99850.44;5000743;28;20057;-93
2022/05/01 10:09:24;;;;;;;3.08;2.00;;;;;;;18.86;33.41;99860.28;4983674;28;20036;-94
2022/05/01 10:11:53;;;;;;;3.00;2.28;;;;;;;19.21;33.68;99846.03;4984199;28;20488;-95
2022/05/01 10:14:23;;;;;;;3.75;2.22;;;;;;;19.57;32.97;99837.66;4984394;28;20025;-95
2022/05/01 10:16:49;;;;;;;3.47;2.28;;;;;;;19.61;32.14;99832.34;4985638;28;20026;-95
2022/05/01 10:19:18;;;;;;;4.45;2.03;;;;;;;19.82;32.46;99838.06;4999694;28;20040;-92
2022/05/01 10:21:46;;;;;;;3.22;2.35;;;;;;;19.79;32.21;99831.31;4983976;28;20030;-93
2022/05/01 10:24:12;;;;;;;3.75;2.10;;;;;;;19.72;32.38;99833.72;4984190;28;20083;-94
2022/05/01 10:26:39;;;;;;;3.85;2.35;;;;;;;19.52;32.53;99826.88;4983941;28;20030;-94
2022/05/01 10:32:20;;;;;;;4.28;2.80;;;;;;;19.43;32.52;99824.13;4984404;28;20112;-93
2022/05/01 10:32:49;;;;;;;5.43;2.97;;;;;;;19.42;32.60;99824.44;5004084;28;20026;-93
2022/05/01 10:35:32;;;;;;;5.80;2.03;;;;;;;19.41;31.92;99801.00;5016017;28;20029;-94
2022/05/01 10:38:07;;;;;;;14.60;2.60;;;;;;;19.55;31.06;99813.41;4985088;28;20030;-94
2022/05/01 10:41:16;;;;;;;7.30;1.90;;;;;;;19.54;30.77;99794.59;4984570;28;20033;-93
2022/05/01 10:43:52;;;;;;;6.03;2.20;;;;;;;19.67;30.55;99806.50;4960391;28;20034;-94
2022/05/01 10:46:20;;;;;;;6.97;2.83;;;;;;;19.90;31.04;99802.56;4975289;28;20207;-94
2022/05/01 10:48:46;;;;;;;5.03;2.03;;;;;;;19.65;29.27;99789.63;4977796;28;20500;-94
2022/05/01 10:51:38;;;;;;;2.72;2.08;;;;;;;19.72;28.43;99796.25;4961029;28;20026;-93
2022/05/01 10:54:15;;;;;;;5.95;1.80;;;;;;;19.71;28.75;99791.09;4961182;28;20133;-93
2022/05/01 10:56:45;;;;;;;4.28;2.35;;;;;;;19.83;29.55;99782.28;4960671;28;20124;-93
2022/05/01 10:59:29;;;;;;;4.68;2.17;;;;;;;19.94;29.48;99787.13;4975873;28;20038;-94
2022/05/01 11:01:55;;;;;;;4.80;2.00;;;;;;;19.98;29.55;99768.97;4975146;28;20042;-93
2022/05/01 11:04:21;;;;;;;6.78;2.00;;;;;;;20.08;29.63;99776.00;4960207;28;20073;-95
2022/05/01 11:06:50;;;;;;;3.65;2.00;;;;;;;20.06;30.23;99775.53;4961351;28;20062;-93
2022/05/01 11:09:19;;;;;;;7.68;2.25;;;;;;;20.15;29.40;99786.47;4960573;28;20034;-94
2022/05/01 11:11:45;;;;;;;3.70;2.17;;;;;;;20.14;29.51;99766.53;4957247;28;20019;-90
2022/05/01 11:14:13;;;;;;;4.13;2.20;;;;;;;20.30;28.92;99768.78;4970328;28;20069;-88
2022/05/01 11:16:51;;;;;;;2.65;2.10;;;;;;;20.12;28.05;99762.50;5000354;28;20021;-88
2022/05/01 11:19:17;;;;;;;3.45;2.35;;;;;;;20.14;28.25;99760.25;5000039;28;20121;-88
2022/05/01 11:21:50;;;;;;;6.05;2.72;;;;;;;20.11;27.65;99764.44;5017381;28;20053;-88
2022/05/01 11:24:15;;;;;;;3.17;1.90;;;;;;;20.11;26.20;99750.78;5000606;28;20029;-86
2022/05/01 11:27:16;;;;;;;6.85;2.70;;;;;;;20.10;26.69;99746.44;4999884;28;20049;-88
2022/05/01 11:30:06;;;;;;;6.03;2.40;;;;;;;20.24;26.39;99740.00;4999427;28;20385;-88
2022/05/01 11:32:50;;;;;;;4.00;2.10;;;;;;;20.09;27.79;99733.91;5018987;28;20452;-94
2022/05/01 11:35:17;;;;;;;5.22;2.53;;;;;;;20.32;27.62;99720.84;5002854;28;20151;-93
2022/05/01 11:37:48;;;;;;;4.38;1.98;;;;;;;20.42;26.76;99729.81;5002867;28;20183;-93
2022/05/01 11:40:22;;;;;;;2.50;1.52;;;;;;;20.26;24.81;99721.34;5003484;28;20049;-94
2022/05/01 11:42:48;;;;;;;2.85;1.73;;;;;;;20.16;25.02;99711.53;5018696;28;20026;-93
2022/05/01 11:45:16;;;;;;;5.43;1.73;;;;;;;20.33;26.18;99711.47;5019756;28;20018;-93
2022/05/01 11:47:42;;;;;;;5.13;2.22;;;;;;;20.61;26.86;99699.38;5003125;28;20021;-94
2022/05/01 11:50:17;;;;;;;10.15;2.00;;;;;;;20.83;26.94;99690.91;5021186;28;20026;-95
2022/05/01 11:52:42;;;;;;;4.53;1.80;;;;;;;20.95;26.79;99682.00;5020949;28;20014;-95
2022/05/01 11:55:09;;;;;;;2.83;1.73;;;;;;;20.99;25.83;99691.94;5003573;28;20025;-95
2022/05/01 12:03:14;;;;;;;2.33;1.40;;;;;;;21.29;25.30;99669.22;4999814;28;20116;-87
2022/05/01 12:05:43;;;;;;;2.60;1.55;;;;;;;21.10;26.21;99678.69;5016489;28;20084;-87
2022/05/01 12:08:09;;;;;;;6.47;2.10;;;;;;;21.06;26.34;99665.97;5000165;28;20105;-86
2022/05/01 12:10:40;;;;;;;3.88;1.67;;;;;;;20.96;26.11;99661.72;5000383;28;20061;-86